Time;durP1;ratioP1;P1;durP2;ratioP2;P2;SDS_P1;SDS_P2;PMS_P1;PMS_P2;Temp;Humidity;BMP_temperature;BMP_pressure;BME280_temperature;BME280_humidity;BME280_pressure;Samples;Min_cycle;Max_cycle;Signal;HPM_P1;HPM_P2
2020/12/15 00:00:59;;;;;;;31.25;18.07;;;;;;;1.16;97.03;99776.27;1763390;81;21302;-69
2020/12/15 00:03:27;;;;;;;31.12;19.05;;;;;;;1.18;96.89;99782.66;1761634;81;21313;-69
2020/12/15 00:05:55;;;;;;;31.23;19.60;;;;;;;1.20;96.74;99788.19;1729448;81;21288;-69
2020/12/15 00:08:23;;;;;;;33.05;20.23;;;;;;;1.20;96.76;99784.28;1761231;81;21191;-69
2020/12/15 00:10:51;;;;;;;32.10;19.67;;;;;;;1.19;96.52;99786.97;1748945;81;21176;-69
2020/12/15 00:13:18;;;;;;;33.35;21.17;;;;;;;1.16;96.72;99791.89;1757322;81;21299;-69
2020/12/15 00:15:46;;;;;;;35.75;20.55;;;;;;;1.14;96.88;99785.90;1763324;81;21239;-69
2020/12/15 00:18:14;;;;;;;32.90;19.25;;;;;;;1.11;96.60;99795.20;1744589;81;21302;-69
2020/12/15 00:20:42;;;;;;;31.60;19.48;;;;;;;1.09;96.86;99798.36;1752145;81;21584;-69
2020/12/15 00:23:11;;;;;;;33.38;19.23;;;;;;;1.11;96.81;99800.42;1755707;81;21332;-69
2020/12/15 00:25:40;;;;;;;30.50;18.42;;;;;;;1.13;96.85;99802.00;1729325;81;21176;-69
2020/12/15 00:28:08;;;;;;;30.35;19.48;;;;;;;1.13;96.85;99802.47;1752739;81;21148;-69
2020/12/15 00:30:37;;;;;;;34.30;21.07;;;;;;;1.10;96.78;99805.23;1763453;81;21184;-69
2020/12/15 00:33:05;;;;;;;32.93;21.27;;;;;;;1.08;97.38;99803.19;1749404;81;21144;-69
2020/12/15 00:35:32;;;;;;;31.95;21.07;;;;;;;1.11;97.96;99804.33;1748512;81;21580;-69
2020/12/15 00:38:00;;;;;;;32.53;19.77;;;;;;;1.14;97.93;99802.83;1733902;81;21723;-69
2020/12/15 00:40:28;;;;;;;32.33;19.32;;;;;;;1.16;97.35;99806.22;1755048;81;21616;-69
2020/12/15 00:42:56;;;;;;;30.45;18.92;;;;;;;1.22;97.26;99811.55;1761917;81;21180;-69
2020/12/15 00:45:24;;;;;;;31.87;20.30;;;;;;;1.25;96.99;99813.97;1726745;81;21157;-69
2020/12/15 00:47:52;;;;;;;31.75;19.90;;;;;;;1.26;96.73;99810.45;1699928;81;21295;-69
2020/12/15 00:50:21;;;;;;;30.55;19.30;;;;;;;1.24;96.47;99803.19;1727044;81;21136;-69
2020/12/15 00:52:49;;;;;;;30.52;18.98;;;;;;;1.20;96.29;99815.98;1740240;81;21338;-69
2020/12/15 00:55:17;;;;;;;28.27;17.73;;;;;;;1.18;96.73;99808.72;1759357;81;21219;-69
2020/12/15 00:57:45;;;;;;;31.27;18.10;;;;;;;1.18;96.89;99809.58;1727545;81;21161;-69
2020/12/15 01:00:13;;;;;;;28.65;16.67;;;;;;;1.19;96.56;99809.94;1749750;81;21555;-69
2020/12/15 01:02:41;;;;;;;26.60;16.60;;;;;;;1.23;96.39;99809.30;1753471;81;21956;-69
2020/12/15 01:05:09;;;;;;;29.40;17.57;;;;;;;1.24;96.32;99811.00;1764253;81;21167;-69
2020/12/15 01:07:38;;;;;;;29.02;18.70;;;;;;;1.23;96.13;99814.05;1758199;81;21553;-69
2020/12/15 01:10:06;;;;;;;30.43;18.67;;;;;;;1.22;96.49;99816.77;1748928;81;21310;-69
2020/12/15 01:12:34;;;;;;;29.87;19.05;;;;;;;1.19;96.40;99811.24;1749033;81;21648;-69
2020/12/15 01:15:05;;;;;;;30.95;18.27;;;;;;;1.17;96.83;99809.19;1752321;81;21137;-69
2020/12/15 01:17:34;;;;;;;30.92;18.82;;;;;;;1.14;96.62;99806.73;1742118;81;21144;-69
2020/12/15 01:20:03;;;;;;;28.95;17.95;;;;;;;1.14;96.72;99802.39;1758207;81;21208;-69
2020/12/15 01:22:30;;;;;;;32.85;19.95;;;;;;;1.19;96.86;99807.33;1733684;81;21189;-69
2020/12/15 01:25:02;;;;;;;34.60;20.00;;;;;;;1.20;96.85;99802.52;1759154;81;21167;-69
2020/12/15 01:27:37;;;;;;;34.33;20.25;;;;;;;1.21;96.83;99795.06;1763210;81;21290;-69
2020/12/15 01:30:07;;;;;;;35.23;20.43;;;;;;;1.22;97.16;99805.04;1747919;81;21180;-69
2020/12/15 01:33:12;;;;;;;29.77;17.17;;;;;;;1.23;96.57;99791.91;1801784;78;23422;-69
2020/12/15 01:35:58;;;;;;;31.52;18.92;;;;;;;1.16;96.64;99808.36;1781120;80;21301;-69
2020/12/15 01:38:28;;;;;;;31.27;18.25;;;;;;;1.11;97.08;99805.16;1783728;80;21144;-69
2020/12/15 01:40:56;;;;;;;29.30;17.85;;;;;;;1.14;97.45;99806.73;1759462;81;21188;-69
2020/12/15 01:43:24;;;;;;;29.65;18.40;;;;;;;1.19;97.18;99812.55;1741607;81;21512;-69
2020/12/15 01:45:51;;;;;;;28.80;18.62;;;;;;;1.19;97.44;99812.55;1749328;81;21174;-69
2020/12/15 01:48:19;;;;;;;31.68;19.10;;;;;;;1.22;97.18;99808.95;1754969;81;21639;-69
2020/12/15 01:50:49;;;;;;;29.00;18.35;;;;;;;1.20;96.90;99811.63;1734973;81;21125;-69
2020/12/15 01:53:17;;;;;;;32.42;20.68;;;;;;;1.20;97.09;99814.67;1731794;81;21157;-69
2020/12/15 01:55:46;;;;;;;26.77;17.27;;;;;;;1.16;97.00;99803.14;1764345;81;21175;-69
2020/12/15 01:58:16;;;;;;;27.62;16.67;;;;;;;1.14;96.79;99799.79;1756043;81;21739;-69
2020/12/15 02:00:45;;;;;;;29.07;16.87;;;;;;;1.14;96.90;99802.39;1748420;81;21239;-69
2020/12/15 02:03:15;;;;;;;28.23;18.02;;;;;;;1.19;97.06;99804.73;1728501;81;21128;-69
2020/12/15 02:06:01;;;;;;;26.77;17.50;;;;;;;1.22;96.94;99811.55;1759210;81;21805;-69
2020/12/15 02:08:31;;;;;;;27.60;17.62;;;;;;;1.26;97.06;99812.59;1757468;81;21148;-69
2020/12/15 02:10:59;;;;;;;26.07;18.12;;;;;;;1.24;96.80;99802.72;1726100;81;21172;-69
2020/12/15 02:13:28;;;;;;;27.95;18.42;;;;;;;1.27;96.69;99805.59;1749530;81;21282;-69
2020/12/15 02:15:56;;;;;;;29.20;19.20;;;;;;;1.26;96.56;99802.63;1749703;81;21314;-69
2020/12/15 02:18:28;;;;;;;27.32;17.05;;;;;;;1.25;96.26;99803.08;1754727;81;21691;-69
2020/12/15 02:20:58;;;;;;;27.07;16.95;;;;;;;1.27;96.30;99804.30;1764239;81;21163;-69
2020/12/15 02:24:10;;;;;;;25.25;16.48;;;;;;;1.35;96.35;99796.44;1798625;78;23597;-69
2020/12/15 02:26:42;;;;;;;26.15;16.95;;;;;;;1.31;96.34;99796.67;1779144;80;21159;-69
2020/12/15 02:29:13;;;;;;;25.17;17.67;;;;;;;1.30;96.26;99797.63;1730593;83;21182;-69
2020/12/15 02:31:40;;;;;;;26.30;18.00;;;;;;;1.30;96.39;99792.41;1738943;82;21655;-69
2020/12/15 02:34:08;;;;;;;26.82;16.80;;;;;;;1.26;96.08;99791.74;1702909;82;21620;-69
2020/12/15 02:36:36;;;;;;;28.87;17.67;;;;;;;1.24;96.02;99796.20;1708787;83;21641;-69
2020/12/15 02:39:15;;;;;;;25.55;16.20;;;;;;;1.20;96.19;99793.39;1704970;82;21137;-69
2020/12/15 02:41:53;;;;;;;24.98;16.65;;;;;;;1.21;96.63;99791.62;1695916;84;21177;-69
2020/12/15 02:44:22;;;;;;;26.05;17.37;;;;;;;1.23;96.35;99789.30;1680837;84;21494;-69
2020/12/15 02:46:51;;;;;;;25.40;15.18;;;;;;;1.21;96.76;99789.02;1715599;82;21131;-69
2020/12/15 02:49:20;;;;;;;26.70;16.87;;;;;;;1.22;97.08;99792.02;1716110;83;21147;-69
2020/12/15 02:51:49;;;;;;;26.07;15.80;;;;;;;1.17;96.29;99798.77;1715938;82;21175;-69
2020/12/15 02:54:25;;;;;;;25.48;17.23;;;;;;;1.11;96.43;99794.73;1728016;81;21612;-69
2020/12/15 02:56:55;;;;;;;25.48;15.48;;;;;;;1.09;96.66;99800.97;1748146;81;21158;-69
2020/12/15 02:59:22;;;;;;;25.23;15.23;;;;;;;1.07;97.04;99795.84;1752439;81;21139;-69
2020/12/15 03:01:52;;;;;;;25.85;15.75;;;;;;;1.09;96.58;99798.36;1745370;81;21316;-69
2020/12/15 03:04:20;;;;;;;26.07;17.10;;;;;;;1.12;97.47;99792.52;1759866;81;21195;-69
2020/12/15 03:06:50;;;;;;;25.55;16.32;;;;;;;1.17;97.67;99793.55;1757307;81;21601;-69
2020/12/15 03:09:19;;;;;;;25.40;17.17;;;;;;;1.21;97.22;99789.84;1713877;83;21164;-69
2020/12/15 03:11:50;;;;;;;24.27;15.83;;;;;;;1.22;97.05;99790.23;1712021;84;21173;-69
2020/12/15 03:14:23;;;;;;;23.70;15.60;;;;;;;1.22;96.89;99795.45;1687414;84;21186;-69
2020/12/15 03:16:51;;;;;;;23.62;14.50;;;;;;;1.22;96.89;99790.23;1683754;84;21219;-69
2020/12/15 03:19:21;;;;;;;23.47;14.80;;;;;;;1.23;96.38;99793.67;1712530;84;21183;-69
2020/12/15 03:21:49;;;;;;;24.98;15.32;;;;;;;1.23;96.05;99795.81;1692150;83;21175;-69
2020/12/15 03:24:17;;;;;;;22.48;15.18;;;;;;;1.21;96.29;99795.06;1706673;84;21200;-69
2020/12/15 03:26:47;;;;;;;21.95;15.15;;;;;;;1.20;96.44;99801.66;1712594;84;21759;-69
2020/12/15 03:29:15;;;;;;;21.42;15.08;;;;;;;1.21;96.50;99800.27;1711389;84;21199;-69
2020/12/15 03:31:44;;;;;;;22.30;15.18;;;;;;;1.22;96.40;99805.88;1712179;84;21187;-69
2020/12/15 03:34:15;;;;;;;24.05;15.98;;;;;;;1.20;96.23;99807.73;1686745;84;21130;-69
2020/12/15 03:36:42;;;;;;;23.45;15.23;;;;;;;1.18;96.26;99817.39;1711989;84;21188;-69
2020/12/15 03:39:11;;;;;;;23.12;15.80;;;;;;;1.17;96.21;99817.00;1711588;84;21156;-69
2020/12/15 03:41:39;;;;;;;22.32;15.93;;;;;;;1.19;96.21;99818.22;1711952;84;21164;-69
2020/12/15 03:44:09;;;;;;;23.45;15.43;;;;;;;1.16;96.22;99816.64;1711144;84;21187;-69
2020/12/15 03:47:05;;;;;;;24.92;16.87;;;;;;;1.18;97.09;99821.73;1811219;78;23486;-69
2020/12/15 03:49:34;;;;;;;22.52;15.45;;;;;;;1.14;97.11;99826.28;1735577;81;21317;-69
2020/12/15 03:52:02;;;;;;;23.02;15.83;;;;;;;1.12;97.00;99824.22;1753659;81;21156;-69
2020/12/15 03:54:31;;;;;;;24.10;16.95;;;;;;;1.10;97.50;99826.08;1780929;80;21353;-69
2020/12/15 03:57:13;;;;;;;22.70;14.33;;;;;;;1.12;97.99;99826.83;1720186;81;21604;-69
2020/12/15 03:59:59;;;;;;;21.48;14.15;;;;;;;1.19;97.78;99839.06;1786307;80;21571;-69
2020/12/15 04:02:28;;;;;;;22.10;15.35;;;;;;;1.25;97.44;99845.23;1764282;80;21564;-69
2020/12/15 04:04:56;;;;;;;21.82;14.60;;;;;;;1.26;97.27;99849.06;1761467;80;21259;-69
2020/12/15 04:07:25;;;;;;;21.68;14.83;;;;;;;1.26;96.95;99853.44;1716553;81;21163;-69
2020/12/15 04:09:53;;;;;;;22.42;14.78;;;;;;;1.23;97.07;99851.83;1739216;81;21180;-69
2020/12/15 04:12:21;;;;;;;23.77;16.07;;;;;;;1.23;97.45;99851.83;1783422;80;21583;-69
2020/12/15 04:14:49;;;;;;;22.42;15.03;;;;;;;1.21;96.97;99853.68;1759191;81;21160;-69
2020/12/15 04:17:17;;;;;;;20.92;14.65;;;;;;;1.16;97.06;99849.20;1753328;80;21630;-69
2020/12/15 04:19:46;;;;;;;21.12;14.73;;;;;;;1.16;97.54;99851.81;1775901;80;21168;-69
2020/12/15 04:22:14;;;;;;;21.50;15.35;;;;;;;1.21;97.23;99852.38;1759271;80;21580;-69
2020/12/15 04:24:47;;;;;;;23.35;16.82;;;;;;;1.23;97.52;99856.20;1774303;80;21128;-69
2020/12/15 04:27:15;;;;;;;23.50;17.10;;;;;;;1.25;97.69;99861.70;1744241;81;21624;-69
2020/12/15 04:29:43;;;;;;;23.20;17.02;;;;;;;1.26;97.58;99860.78;1788216;80;21159;-69
2020/12/15 04:32:12;;;;;;;22.77;16.60;;;;;;;1.27;97.30;99866.39;1775523;80;21143;-69
2020/12/15 04:35:18;;;;;;;22.82;15.95;;;;;;;1.30;96.94;99864.90;1800555;78;23506;-69
2020/12/15 04:37:49;;;;;;;19.95;14.58;;;;;;;1.21;96.70;99868.48;1728015;83;21187;-69
2020/12/15 04:40:18;;;;;;;20.52;14.68;;;;;;;1.16;96.84;99873.48;1671502;84;21330;-69
2020/12/15 04:42:47;;;;;;;22.37;15.23;;;;;;;1.15;97.15;99872.26;1723955;82;21231;-69
2020/12/15 04:45:17;;;;;;;20.37;14.73;;;;;;;1.15;97.75;99877.47;1729021;83;21196;-69
2020/12/15 04:47:46;;;;;;;21.90;15.50;;;;;;;1.19;98.29;99875.07;1708894;82;21152;-69
2020/12/15 04:50:17;;;;;;;22.40;15.63;;;;;;;1.21;98.15;99877.13;1686165;82;21128;-69
2020/12/15 04:53:23;;;;;;;20.60;14.65;;;;;;;1.26;97.96;99871.20;1800481;78;23070;-69
2020/12/15 04:55:55;;;;;;;20.92;14.25;;;;;;;1.24;97.92;99879.58;1788118;80;21313;-69
2020/12/15 04:58:24;;;;;;;21.42;14.07;;;;;;;1.22;97.44;99874.91;1758463;80;21601;-69
2020/12/15 05:00:53;;;;;;;19.10;13.45;;;;;;;1.22;97.24;99880.13;1797213;80;21190;-69
2020/12/15 05:03:26;;;;;;;20.50;13.90;;;;;;;1.25;97.37;99881.71;1785921;80;21160;-69
2020/12/15 05:05:54;;;;;;;21.17;14.23;;;;;;;1.24;97.48;99886.09;1729996;83;21167;-69
2020/12/15 05:08:23;;;;;;;20.05;13.95;;;;;;;1.25;97.45;99883.84;1751253;81;21342;-69
2020/12/15 05:10:53;;;;;;;20.15;13.08;;;;;;;1.25;97.35;99884.31;1720764;83;21302;-69
2020/12/15 05:13:36;;;;;;;19.27;13.58;;;;;;;1.22;97.30;99881.90;1660839;83;21188;-69
2020/12/15 05:16:04;;;;;;;19.85;13.35;;;;;;;1.18;97.37;99890.78;1723561;81;21167;-69
2020/12/15 05:18:43;;;;;;;16.32;11.48;;;;;;;1.18;97.86;99889.03;1693198;83;21152;-69
2020/12/15 05:21:16;;;;;;;16.95;11.43;;;;;;;1.21;97.58;99894.06;1758527;81;21160;-69
2020/12/15 05:23:51;;;;;;;16.10;11.25;;;;;;;1.23;97.25;99893.52;1720635;81;21140;-69
2020/12/15 05:26:23;;;;;;;16.05;11.88;;;;;;;1.21;97.36;99895.36;1755193;81;21172;-69
2020/12/15 05:29:07;;;;;;;18.25;11.78;;;;;;;1.19;97.31;99895.91;1718944;83;21215;-69
2020/12/15 05:31:40;;;;;;;18.30;13.22;;;;;;;1.18;97.54;99903.80;1761209;81;21556;-69
2020/12/15 05:34:26;;;;;;;19.87;13.55;;;;;;;1.16;97.62;99901.31;1613489;88;21595;-69
2020/12/15 05:37:13;;;;;;;21.68;13.98;;;;;;;1.13;97.90;99900.99;1739934;81;21723;-70
2020/12/15 05:40:00;;;;;;;18.52;12.78;;;;;;;1.17;97.85;99912.09;1657494;83;21155;-69
2020/12/15 05:42:31;;;;;;;18.98;13.38;;;;;;;1.21;97.87;99906.25;1695540;84;21188;-69
2020/12/15 05:44:59;;;;;;;19.32;13.98;;;;;;;1.25;98.18;99908.59;1702308;83;21158;-69
2020/12/15 05:47:27;;;;;;;17.62;13.43;;;;;;;1.27;97.81;99917.20;1700713;83;21322;-69
2020/12/15 05:49:57;;;;;;;21.00;14.20;;;;;;;1.28;97.55;99929.28;1716489;83;21128;-69
2020/12/15 05:52:28;;;;;;;20.68;14.38;;;;;;;1.26;97.50;99925.92;1732184;83;21164;-69
2020/12/15 05:55:10;;;;;;;20.17;15.00;;;;;;;1.25;97.38;99925.53;1706555;83;21181;-69
2020/12/15 05:57:43;;;;;;;19.70;13.65;;;;;;;1.22;97.30;99936.14;1710611;83;21175;-69
2020/12/15 06:00:11;;;;;;;17.62;12.33;;;;;;;1.23;97.16;99944.32;1720585;83;21324;-69
2020/12/15 06:02:41;;;;;;;20.65;14.43;;;;;;;1.23;97.15;99947.39;1688454;83;21164;-69
2020/12/15 06:05:09;;;;;;;19.75;14.28;;;;;;;1.19;97.49;99946.72;1680986;84;21597;-69
2020/12/15 06:07:37;;;;;;;19.70;14.47;;;;;;;1.17;97.59;99952.47;1688235;84;21186;-69
2020/12/15 06:10:05;;;;;;;20.60;14.75;;;;;;;1.18;97.90;99955.91;1720714;83;21194;-69
2020/12/15 06:12:33;;;;;;;21.65;14.35;;;;;;;1.16;97.76;99958.16;1690229;84;21203;-69
2020/12/15 06:15:03;;;;;;;21.90;15.90;;;;;;;1.16;97.88;99963.83;1685711;84;21346;-69
2020/12/15 06:17:30;;;;;;;20.77;14.28;;;;;;;1.16;98.44;99969.87;1719500;83;21596;-69
2020/12/15 06:20:00;;;;;;;20.55;14.78;;;;;;;1.22;98.23;99980.91;1691099;83;21139;-69
2020/12/15 06:22:28;;;;;;;23.18;14.85;;;;;;;1.26;97.69;99983.72;1725975;83;21179;-69
2020/12/15 06:24:58;;;;;;;20.80;14.68;;;;;;;1.28;98.07;99984.48;1697075;84;21192;-69
2020/12/15 06:27:35;;;;;;;19.80;14.25;;;;;;;1.30;98.18;99980.85;1732938;83;21180;-69
2020/12/15 06:30:04;;;;;;;22.30;15.25;;;;;;;1.32;97.85;99975.56;1729582;83;21207;-69
2020/12/15 06:32:32;;;;;;;20.68;15.10;;;;;;;1.34;98.15;99982.84;1685954;83;21305;-69
2020/12/15 06:35:06;;;;;;;22.00;14.63;;;;;;;1.36;97.73;99987.50;1721819;83;21608;-69
2020/12/15 06:37:35;;;;;;;19.52;13.80;;;;;;;1.37;97.54;99987.89;1674814;84;21195;-69
2020/12/15 06:40:05;;;;;;;18.30;12.82;;;;;;;1.40;96.86;99989.48;1721619;82;21581;-70
2020/12/15 06:42:35;;;;;;;18.45;14.00;;;;;;;1.39;96.62;99991.26;1720657;83;21179;-70
2020/12/15 06:45:08;;;;;;;18.92;13.75;;;;;;;1.40;96.85;100001.21;1677310;83;21175;-70
2020/12/15 06:47:37;;;;;;;19.42;14.58;;;;;;;1.38;96.62;100005.67;1721893;83;21167;-70
2020/12/15 06:50:18;;;;;;;22.10;15.48;;;;;;;1.33;96.18;100000.72;1693117;83;21164;-70
2020/12/15 06:52:46;;;;;;;19.87;14.00;;;;;;;1.24;96.41;100008.55;1711333;83;21176;-70
2020/12/15 06:55:14;;;;;;;18.82;14.07;;;;;;;1.13;96.75;100011.70;1712880;83;21203;-68
2020/12/15 06:57:42;;;;;;;20.40;13.78;;;;;;;1.09;97.15;100007.59;1716296;83;21208;-70
2020/12/15 07:00:11;;;;;;;20.17;13.18;;;;;;;1.10;97.53;100006.64;1724408;83;21139;-68
2020/12/15 07:02:43;;;;;;;19.15;13.93;;;;;;;1.18;97.97;100010.62;1682092;83;21151;-69
2020/12/15 07:05:24;;;;;;;20.15;14.43;;;;;;;1.24;98.52;100008.55;1727730;83;21257;-69
2020/12/15 07:07:58;;;;;;;20.62;14.45;;;;;;;1.32;98.26;100014.19;1725814;83;21579;-70
2020/12/15 07:10:28;;;;;;;19.98;13.93;;;;;;;1.38;98.17;100009.58;1726827;83;21175;-70
2020/12/15 07:12:59;;;;;;;23.07;14.13;;;;;;;1.45;97.72;100012.24;1732338;83;21200;-70
2020/12/15 07:15:28;;;;;;;19.30;14.07;;;;;;;1.46;96.87;100019.13;1708983;83;21199;-69
2020/12/15 07:17:56;;;;;;;20.48;13.48;;;;;;;1.45;96.50;100019.59;1702770;83;21164;-67
2020/12/15 07:20:24;;;;;;;20.05;13.00;;;;;;;1.44;96.23;100017.92;1707640;83;21730;-66
2020/12/15 07:22:54;;;;;;;22.20;14.03;;;;;;;1.47;96.53;100027.34;1711719;83;21180;-68
2020/12/15 07:25:21;;;;;;;21.62;15.25;;;;;;;1.51;96.46;100028.84;1712431;83;21631;-70
2020/12/15 07:27:49;;;;;;;23.20;15.05;;;;;;;1.52;96.44;100026.64;1663556;84;21183;-70
2020/12/15 07:30:19;;;;;;;23.15;15.55;;;;;;;1.54;96.23;100023.48;1706751;84;21198;-71
2020/12/15 07:32:48;;;;;;;22.70;15.38;;;;;;;1.55;96.06;100029.06;1704160;83;21370;-70
2020/12/15 07:35:25;;;;;;;22.60;14.30;;;;;;;1.57;95.86;100024.60;1705414;82;21255;-68
2020/12/15 07:40:56;;;;;;;22.82;14.75;;;;;;;1.66;94.92;100017.59;1798279;78;22598;-69
2020/12/15 07:43:26;;;;;;;23.38;16.37;;;;;;;1.62;95.01;100013.47;1752235;81;21327;-76
2020/12/15 07:45:54;;;;;;;21.87;15.68;;;;;;;1.66;94.99;100013.68;1742616;81;21183;-76
2020/12/15 07:48:24;;;;;;;22.17;16.10;;;;;;;1.68;94.97;100018.38;1744460;81;21158;-65
2020/12/15 07:50:51;;;;;;;25.08;16.70;;;;;;;1.73;95.49;100017.64;1769657;80;21285;-79
2020/12/15 07:53:19;;;;;;;23.60;16.57;;;;;;;1.79;95.10;100013.02;1785802;80;21613;-68
2020/12/15 07:55:46;;;;;;;24.80;16.48;;;;;;;1.83;94.60;100021.05;1794554;80;21152;-69
2020/12/15 07:58:16;;;;;;;25.35;16.95;;;;;;;1.82;94.11;100020.22;1741636;80;21223;-68
2020/12/15 08:00:44;;;;;;;26.00;16.90;;;;;;;1.82;93.91;100024.61;1764166;80;21140;-68
2020/12/15 08:03:12;;;;;;;25.80;18.35;;;;;;;1.85;93.75;100027.89;1739661;79;21421;-68
2020/12/15 08:05:41;;;;;;;28.65;19.37;;;;;;;1.89;94.33;100028.53;1784104;79;21187;-70
2020/12/15 08:08:11;;;;;;;27.77;18.50;;;;;;;1.96;94.49;100034.27;1760574;80;21148;-68
2020/12/15 08:10:38;;;;;;;27.32;18.87;;;;;;;1.99;93.67;100033.63;1723640;80;21615;-69
2020/12/15 08:13:06;;;;;;;30.20;20.37;;;;;;;2.02;93.43;100030.87;1759571;79;21217;-68
2020/12/15 08:15:41;;;;;;;27.93;20.55;;;;;;;2.01;92.69;100035.70;1786711;79;21186;-69
2020/12/15 08:18:10;;;;;;;31.60;21.45;;;;;;;1.99;92.53;100040.16;1760806;80;21185;-69
2020/12/15 08:20:40;;;;;;;28.40;18.77;;;;;;;1.97;92.58;100038.09;1760635;80;21191;-70
2020/12/15 08:23:10;;;;;;;30.55;19.67;;;;;;;1.99;92.86;100040.16;1718319;80;21146;-65
2020/12/15 08:25:45;;;;;;;34.70;22.25;;;;;;;2.07;92.22;100044.95;1776286;80;21260;-65
2020/12/15 08:28:23;;;;;;;33.18;22.62;;;;;;;2.08;92.24;100042.73;1737585;81;21176;-66
2020/12/15 08:30:54;;;;;;;32.93;22.75;;;;;;;2.07;91.90;100043.17;1737835;81;21214;-66
2020/12/15 08:33:30;;;;;;;36.25;23.50;;;;;;;2.00;91.46;100049.68;1721094;81;21585;-67
2020/12/15 08:35:59;;;;;;;33.98;22.90;;;;;;;1.94;91.66;100043.47;1748481;81;21161;-66
2020/12/15 08:38:35;;;;;;;34.43;23.07;;;;;;;1.89;92.11;100054.61;1795841;79;21201;-70
2020/12/15 08:41:26;;;;;;;31.27;21.80;;;;;;;1.86;92.58;100051.72;1764995;80;21596;-73
2020/12/15 08:44:24;;;;;;;30.92;20.12;;;;;;;1.91;92.93;100051.48;1798851;78;23379;-67
2020/12/15 08:46:59;;;;;;;29.23;20.25;;;;;;;1.93;92.57;100049.63;1791264;80;21191;-70
2020/12/15 08:49:48;;;;;;;28.70;20.88;;;;;;;1.97;92.82;100046.39;1784838;80;21309;-71
2020/12/15 08:52:24;;;;;;;31.97;21.57;;;;;;;2.02;92.96;100054.34;1769900;80;21182;-69
2020/12/15 08:54:56;;;;;;;30.30;20.70;;;;;;;2.06;92.53;100059.77;1769429;79;21615;-68
2020/12/15 08:57:52;;;;;;;;;;;;;;;;;;;;;
2020/12/15 09:00:42;;;;;;;28.67;20.72;;;;;;;2.15;91.72;100044.05;1805442;78;28644;-70
2020/12/15 09:06:18;;;;;;;29.92;20.15;;;;;;;2.35;90.77;100037.72;1787631;78;22984;-69
2020/12/15 09:08:53;;;;;;;26.52;18.70;;;;;;;2.33;90.30;100038.27;1749219;81;21164;-70
2020/12/15 09:11:24;;;;;;;27.42;19.98;;;;;;;2.33;90.56;100039.58;1743251;81;21330;-67
2020/12/15 09:13:59;;;;;;;26.87;18.82;;;;;;;2.30;90.07;100037.13;1773451;80;21257;-65
2020/12/15 09:16:34;;;;;;;30.25;20.32;;;;;;;2.27;89.96;100035.55;1774088;79;21154;-66
2020/12/15 09:19:21;;;;;;;27.95;19.52;;;;;;;2.25;90.25;100035.27;1766778;80;21203;-68
2020/12/15 09:21:59;;;;;;;28.73;19.75;;;;;;;2.26;90.27;100040.84;1748457;80;21167;-68
2020/12/15 09:24:27;;;;;;;29.65;19.23;;;;;;;2.23;89.71;100039.73;1766122;81;21310;-69
2020/12/15 09:26:56;;;;;;;28.40;19.35;;;;;;;2.22;89.92;100039.34;1726058;81;21619;-72
2020/12/15 09:29:23;;;;;;;32.25;20.32;;;;;;;2.26;90.23;100036.93;1739153;80;21320;-69
2020/12/15 09:31:55;;;;;;;32.05;19.75;;;;;;;2.30;90.55;100044.95;1768453;80;21124;-71
2020/12/15 09:34:23;;;;;;;29.27;20.60;;;;;;;2.32;90.48;100040.05;1766733;80;21195;-70
2020/12/15 09:36:56;;;;;;;31.65;20.60;;;;;;;2.38;90.36;100048.00;1742452;80;21619;-69
2020/12/15 09:39:28;;;;;;;28.60;19.67;;;;;;;2.40;89.60;100047.44;1778305;80;21286;-70
2020/12/15 09:42:00;;;;;;;30.32;19.92;;;;;;;2.37;89.24;100044.99;1769446;80;21195;-69
2020/12/15 09:44:30;;;;;;;29.67;21.20;;;;;;;2.34;89.17;100042.58;1746282;81;21621;-69
2020/12/15 09:46:58;;;;;;;29.37;18.75;;;;;;;2.31;89.37;100038.83;1709165;83;21180;-73
2020/12/15 09:49:25;;;;;;;28.65;20.05;;;;;;;2.30;89.29;100044.95;1718096;83;21185;-69
2020/12/15 09:51:53;;;;;;;31.77;21.90;;;;;;;2.35;89.29;100039.02;1712359;81;21308;-70
2020/12/15 09:54:20;;;;;;;29.25;20.45;;;;;;;2.36;89.82;100042.02;1693369;83;21205;-69
2020/12/15 09:56:48;;;;;;;33.23;22.32;;;;;;;2.40;89.90;100040.91;1709813;82;21850;-69
2020/12/15 09:59:16;;;;;;;31.60;21.07;;;;;;;2.42;89.62;100036.92;1695806;84;21682;-66
2020/12/15 10:01:44;;;;;;;35.85;24.30;;;;;;;2.40;89.23;100040.91;1698773;84;21184;-67
2020/12/15 10:04:12;;;;;;;36.17;25.32;;;;;;;2.33;89.15;100031.74;1727670;83;21140;-69
2020/12/15 10:06:40;;;;;;;43.48;27.85;;;;;;;2.28;89.53;100036.38;1731971;83;21215;-69
2020/12/15 10:09:07;;;;;;;40.90;26.12;;;;;;;2.21;89.68;100033.29;1727383;83;21192;-71
2020/12/15 10:11:36;;;;;;;39.92;27.07;;;;;;;2.20;90.31;100034.67;1699615;83;21227;-71
2020/12/15 10:14:04;;;;;;;39.38;27.50;;;;;;;2.21;90.35;100033.29;1695462;83;21166;-72
2020/12/15 10:16:32;;;;;;;39.00;26.68;;;;;;;2.25;90.94;100035.27;1728107;83;21322;-71
2020/12/15 10:19:00;;;;;;;38.67;25.35;;;;;;;2.30;91.60;100030.60;1732160;83;21139;-73
2020/12/15 10:21:28;;;;;;;42.17;27.87;;;;;;;2.36;90.77;100026.36;1680397;84;21592;-74
2020/12/15 10:23:55;;;;;;;40.60;26.15;;;;;;;2.36;90.67;100031.58;1699066;83;21336;-71
2020/12/15 10:26:27;;;;;;;39.75;25.32;;;;;;;2.38;90.24;100031.03;1676364;84;21183;-71
2020/12/15 10:28:58;;;;;;;36.45;25.40;;;;;;;2.37;90.05;100033.25;1692360;84;21192;-67
2020/12/15 10:31:28;;;;;;;42.05;26.37;;;;;;;2.33;89.85;100030.44;1706985;83;21171;-71
2020/12/15 10:33:56;;;;;;;43.08;26.95;;;;;;;2.33;89.88;100027.83;1710165;83;21163;-70
2020/12/15 10:36:24;;;;;;;42.25;27.85;;;;;;;2.28;89.58;100032.46;1712268;83;21166;-72
2020/12/15 10:38:53;;;;;;;48.90;31.40;;;;;;;2.18;90.31;100024.78;1712733;83;21591;-71
2020/12/15 10:41:27;;;;;;;56.35;31.50;;;;;;;2.11;91.41;100030.80;1710232;83;21172;-72
2020/12/15 10:43:55;;;;;;;48.42;30.92;;;;;;;2.11;91.92;100034.27;1711874;83;21190;-70
2020/12/15 10:46:24;;;;;;;45.00;29.23;;;;;;;2.07;92.01;100034.04;1710094;83;21891;-75
2020/12/15 10:48:53;;;;;;;50.63;31.62;;;;;;;2.01;92.31;100039.61;1705082;84;21197;-68
2020/12/15 10:51:21;;;;;;;41.73;29.20;;;;;;;1.96;92.88;100042.92;1699848;84;21342;-68
2020/12/15 10:53:49;;;;;;;48.90;29.18;;;;;;;1.97;93.43;100049.00;1703811;84;21219;-69
2020/12/15 10:56:19;;;;;;;42.58;29.12;;;;;;;1.96;93.34;100032.96;1697783;84;21330;-68
2020/12/15 10:58:47;;;;;;;42.62;28.92;;;;;;;2.02;93.45;100045.22;1681495;84;21609;-68
2020/12/15 11:01:14;;;;;;;42.70;29.37;;;;;;;1.99;93.06;100045.38;1693045;84;21177;-69
2020/12/15 11:03:42;;;;;;;46.98;30.20;;;;;;;1.92;93.74;100047.94;1711843;84;21232;-69
2020/12/15 11:06:10;;;;;;;43.08;30.32;;;;;;;1.89;94.10;100042.44;1684552;84;21182;-69
2020/12/15 11:08:39;;;;;;;45.03;29.45;;;;;;;1.91;94.88;100044.97;1701819;84;21193;-68
2020/12/15 11:11:12;;;;;;;47.62;29.90;;;;;;;1.92;94.47;100042.25;1712712;82;21143;-75
2020/12/15 11:13:40;;;;;;;42.13;28.80;;;;;;;1.92;94.55;100049.24;1713010;83;21205;-76
2020/12/15 11:16:07;;;;;;;47.73;28.83;;;;;;;1.95;94.52;100056.91;1706420;83;21241;-77
2020/12/15 11:18:35;;;;;;;42.95;28.73;;;;;;;2.02;94.50;100053.48;1697318;83;21333;-72
2020/12/15 11:21:02;;;;;;;39.38;25.70;;;;;;;2.08;95.03;100057.08;1717241;82;21258;-77
2020/12/15 11:23:30;;;;;;;41.58;28.57;;;;;;;2.12;94.28;100054.20;1731381;82;21682;-71
2020/12/15 11:25:59;;;;;;;40.33;27.50;;;;;;;2.10;94.14;100053.92;1670972;84;21246;-69
2020/12/15 11:28:26;;;;;;;39.55;24.20;;;;;;;2.12;94.69;100058.59;1696701;84;21185;-72
2020/12/15 11:30:54;;;;;;;35.65;23.60;;;;;;;2.16;93.77;100059.27;1684426;84;21339;-70
2020/12/15 11:33:22;;;;;;;41.30;27.10;;;;;;;2.07;93.64;100061.44;1700600;84;21742;-68
2020/12/15 11:35:50;;;;;;;39.42;25.97;;;;;;;2.06;94.16;100060.23;1709331;84;21269;-67
2020/12/15 11:38:18;;;;;;;39.60;25.90;;;;;;;2.13;94.37;100067.64;1688229;84;21185;-68
2020/12/15 11:40:46;;;;;;;38.85;26.20;;;;;;;2.16;94.00;100067.92;1711606;84;21189;-68
2020/12/15 11:43:14;;;;;;;43.05;26.33;;;;;;;2.13;93.93;100067.64;1692530;84;21221;-67
2020/12/15 11:45:41;;;;;;;36.95;22.67;;;;;;;2.15;94.36;100077.97;1686686;84;21139;-68
2020/12/15 11:48:10;;;;;;;35.88;23.70;;;;;;;2.15;94.31;100071.44;1727229;83;21625;-68